sensor_id;sensor_type;location;lat;lon;timestamp;P1;durP1;ratioP1;P2;durP2;ratioP2
4106;SDS011;21906;50.812;7.132;2022-08-04T00:00:12;4.00;;;3.70;;
4106;SDS011;21906;50.812;7.132;2022-08-04T00:10:30;4.40;;;4.20;;
4106;SDS011;21906;50.812;7.132;2022-08-04T00:12:59;4.80;;;4.40;;
4106;SDS011;21906;50.812;7.132;2022-08-04T00:15:26;4.80;;;4.30;;
4106;SDS011;21906;50.812;7.132;2022-08-04T00:17:57;4.20;;;3.90;;
4106;SDS011;21906;50.812;7.132;2022-08-04T00:20:33;5.07;;;4.67;;
4106;SDS011;21906;50.812;7.132;2022-08-04T00:23:02;4.90;;;4.50;;
4106;SDS011;21906;50.812;7.132;2022-08-04T00:25:30;4.40;;;4.00;;
4106;SDS011;21906;50.812;7.132;2022-08-04T00:27:56;4.30;;;3.90;;
4106;SDS011;21906;50.812;7.132;2022-08-04T00:30:24;4.60;;;4.20;;
4106;SDS011;21906;50.812;7.132;2022-08-04T00:32:50;4.30;;;4.00;;
4106;SDS011;21906;50.812;7.132;2022-08-04T00:35:16;4.43;;;4.13;;
4106;SDS011;21906;50.812;7.132;2022-08-04T00:37:45;5.30;;;4.30;;
4106;SDS011;21906;50.812;7.132;2022-08-04T00:40:21;4.10;;;3.80;;
4106;SDS011;21906;50.812;7.132;2022-08-04T01:02:30;3.90;;;3.60;;
4106;SDS011;21906;50.812;7.132;2022-08-04T01:10:35;4.40;;;4.10;;
4106;SDS011;21906;50.812;7.132;2022-08-04T01:16:07;4.80;;;3.83;;
4106;SDS011;21906;50.812;7.132;2022-08-04T01:29:50;4.40;;;4.00;;
4106;SDS011;21906;50.812;7.132;2022-08-04T01:37:56;4.73;;;3.97;;
4106;SDS011;21906;50.812;7.132;2022-08-04T01:40:29;4.10;;;3.70;;
4106;SDS011;21906;50.812;7.132;2022-08-04T01:42:56;7.07;;;4.53;;
4106;SDS011;21906;50.812;7.132;2022-08-04T01:45:24;5.00;;;4.60;;
4106;SDS011;21906;50.812;7.132;2022-08-04T01:47:50;4.90;;;4.30;;
4106;SDS011;21906;50.812;7.132;2022-08-04T01:50:19;4.47;;;4.17;;
4106;SDS011;21906;50.812;7.132;2022-08-04T01:52:46;4.63;;;4.33;;
4106;SDS011;21906;50.812;7.132;2022-08-04T01:55:13;4.57;;;4.27;;
4106;SDS011;21906;50.812;7.132;2022-08-04T01:57:42;4.63;;;4.27;;
4106;SDS011;21906;50.812;7.132;2022-08-04T02:00:10;4.63;;;4.23;;
4106;SDS011;21906;50.812;7.132;2022-08-04T02:02:38;4.70;;;4.40;;
4106;SDS011;21906;50.812;7.132;2022-08-04T02:05:03;4.47;;;4.17;;
4106;SDS011;21906;50.812;7.132;2022-08-04T02:07:31;4.97;;;4.50;;
4106;SDS011;21906;50.812;7.132;2022-08-04T02:15:09;4.03;;;3.73;;
4106;SDS011;21906;50.812;7.132;2022-08-04T02:17:54;4.57;;;4.27;;
4106;SDS011;21906;50.812;7.132;2022-08-04T02:20:22;4.43;;;4.17;;
4106;SDS011;21906;50.812;7.132;2022-08-04T02:22:57;4.40;;;4.00;;
4106;SDS011;21906;50.812;7.132;2022-08-04T02:25:25;4.57;;;4.10;;
4106;SDS011;21906;50.812;7.132;2022-08-04T02:30:21;4.10;;;3.80;;
4106;SDS011;21906;50.812;7.132;2022-08-04T02:33:09;4.37;;;4.00;;
4106;SDS011;21906;50.812;7.132;2022-08-04T02:35:40;5.03;;;4.63;;
4106;SDS011;21906;50.812;7.132;2022-08-04T02:38:17;4.57;;;4.17;;
4106;SDS011;21906;50.812;7.132;2022-08-04T02:40:48;4.50;;;4.20;;
4106;SDS011;21906;50.812;7.132;2022-08-04T02:43:16;4.30;;;4.00;;
4106;SDS011;21906;50.812;7.132;2022-08-04T02:45:44;4.80;;;4.40;;
4106;SDS011;21906;50.812;7.132;2022-08-04T02:48:12;4.37;;;4.07;;
4106;SDS011;21906;50.812;7.132;2022-08-04T02:50:39;4.60;;;4.30;;
4106;SDS011;21906;50.812;7.132;2022-08-04T02:53:08;4.60;;;4.20;;
4106;SDS011;21906;50.812;7.132;2022-08-04T02:55:38;4.23;;;3.93;;
4106;SDS011;21906;50.812;7.132;2022-08-04T02:58:08;5.03;;;4.73;;
4106;SDS011;21906;50.812;7.132;2022-08-04T03:00:36;4.97;;;4.50;;
4106;SDS011;21906;50.812;7.132;2022-08-04T04:08:15;5.13;;;4.73;;
4106;SDS011;21906;50.812;7.132;2022-08-04T04:28:02;4.53;;;4.23;;
4106;SDS011;21906;50.812;7.132;2022-08-04T04:30:30;4.83;;;4.33;;
4106;SDS011;21906;50.812;7.132;2022-08-04T04:42:01;5.37;;;4.83;;
4106;SDS011;21906;50.812;7.132;2022-08-04T04:44:45;5.23;;;4.63;;
4106;SDS011;21906;50.812;7.132;2022-08-04T04:47:32;5.97;;;5.10;;
4106;SDS011;21906;50.812;7.132;2022-08-04T04:52:41;5.07;;;4.67;;
4106;SDS011;21906;50.812;7.132;2022-08-04T04:55:32;5.00;;;4.63;;
4106;SDS011;21906;50.812;7.132;2022-08-04T04:58:04;4.97;;;4.37;;
4106;SDS011;21906;50.812;7.132;2022-08-04T05:03:33;4.77;;;4.33;;
4106;SDS011;21906;50.812;7.132;2022-08-04T05:09:21;5.07;;;4.70;;
4106;SDS011;21906;50.812;7.132;2022-08-04T05:14:48;5.80;;;5.30;;
4106;SDS011;21906;50.812;7.132;2022-08-04T05:17:25;5.40;;;5.03;;
4106;SDS011;21906;50.812;7.132;2022-08-04T05:22:40;4.93;;;4.63;;
4106;SDS011;21906;50.812;7.132;2022-08-04T05:27:54;4.83;;;4.57;;
4106;SDS011;21906;50.812;7.132;2022-08-04T05:30:29;5.50;;;5.13;;
4106;SDS011;21906;50.812;7.132;2022-08-04T05:33:00;5.40;;;5.00;;
4106;SDS011;21906;50.812;7.132;2022-08-04T05:35:40;5.60;;;5.20;;
4106;SDS011;21906;50.812;7.132;2022-08-04T05:38:09;5.33;;;4.67;;
4106;SDS011;21906;50.812;7.132;2022-08-04T05:40:38;5.50;;;5.03;;
4106;SDS011;21906;50.812;7.132;2022-08-04T05:43:04;5.27;;;4.77;;
4106;SDS011;21906;50.812;7.132;2022-08-04T05:45:33;5.80;;;5.30;;
4106;SDS011;21906;50.812;7.132;2022-08-04T05:48:02;5.20;;;4.90;;
4106;SDS011;21906;50.812;7.132;2022-08-04T05:50:31;5.53;;;5.17;;
4106;SDS011;21906;50.812;7.132;2022-08-04T05:52:58;5.40;;;5.10;;
4106;SDS011;21906;50.812;7.132;2022-08-04T05:55:26;5.50;;;5.00;;
4106;SDS011;21906;50.812;7.132;2022-08-04T05:57:54;5.53;;;5.23;;
4106;SDS011;21906;50.812;7.132;2022-08-04T06:00:23;5.83;;;5.20;;
4106;SDS011;21906;50.812;7.132;2022-08-04T06:02:50;5.90;;;5.40;;
4106;SDS011;21906;50.812;7.132;2022-08-04T06:05:18;5.70;;;5.20;;
4106;SDS011;21906;50.812;7.132;2022-08-04T06:07:44;5.47;;;5.07;;
4106;SDS011;21906;50.812;7.132;2022-08-04T06:10:10;6.03;;;5.33;;
4106;SDS011;21906;50.812;7.132;2022-08-04T06:15:10;5.40;;;4.93;;
4106;SDS011;21906;50.812;7.132;2022-08-04T06:17:41;5.50;;;5.07;;
4106;SDS011;21906;50.812;7.132;2022-08-04T06:20:13;5.33;;;5.00;;
4106;SDS011;21906;50.812;7.132;2022-08-04T06:22:40;9.90;;;5.40;;
4106;SDS011;21906;50.812;7.132;2022-08-04T06:25:09;6.93;;;5.10;;
4106;SDS011;21906;50.812;7.132;2022-08-04T06:27:37;5.83;;;5.33;;
4106;SDS011;21906;50.812;7.132;2022-08-04T06:30:05;6.27;;;5.70;;
4106;SDS011;21906;50.812;7.132;2022-08-04T06:32:34;5.90;;;5.40;;
4106;SDS011;21906;50.812;7.132;2022-08-04T06:35:04;6.17;;;5.60;;
4106;SDS011;21906;50.812;7.132;2022-08-04T06:37:32;5.03;;;4.73;;
4106;SDS011;21906;50.812;7.132;2022-08-04T06:40:01;6.23;;;4.93;;
4106;SDS011;21906;50.812;7.132;2022-08-04T06:42:28;6.77;;;5.13;;
4106;SDS011;21906;50.812;7.132;2022-08-04T06:44:58;5.53;;;5.20;;
4106;SDS011;21906;50.812;7.132;2022-08-04T06:47:25;7.40;;;4.60;;
4106;SDS011;21906;50.812;7.132;2022-08-04T06:49:54;5.90;;;4.83;;
4106;SDS011;21906;50.812;7.132;2022-08-04T06:52:20;6.10;;;5.60;;
4106;SDS011;21906;50.812;7.132;2022-08-04T06:54:47;6.60;;;5.97;;
4106;SDS011;21906;50.812;7.132;2022-08-04T06:57:18;5.43;;;5.13;;
4106;SDS011;21906;50.812;7.132;2022-08-04T06:59:52;6.73;;;5.50;;
4106;SDS011;21906;50.812;7.132;2022-08-04T07:02:33;6.10;;;4.97;;
4106;SDS011;21906;50.812;7.132;2022-08-04T07:05:09;6.00;;;5.33;;
4106;SDS011;21906;50.812;7.132;2022-08-04T07:07:36;6.70;;;5.57;;
4106;SDS011;21906;50.812;7.132;2022-08-04T07:10:04;6.83;;;5.67;;
4106;SDS011;21906;50.812;7.132;2022-08-04T07:12:31;5.30;;;5.00;;
4106;SDS011;21906;50.812;7.132;2022-08-04T07:14:58;5.53;;;5.13;;
4106;SDS011;21906;50.812;7.132;2022-08-04T07:17:24;12.53;;;5.20;;
4106;SDS011;21906;50.812;7.132;2022-08-04T07:19:52;6.13;;;5.53;;
4106;SDS011;21906;50.812;7.132;2022-08-04T07:22:18;5.13;;;4.80;;
4106;SDS011;21906;50.812;7.132;2022-08-04T07:24:45;4.50;;;4.20;;
4106;SDS011;21906;50.812;7.132;2022-08-04T07:27:10;5.60;;;5.10;;
4106;SDS011;21906;50.812;7.132;2022-08-04T07:29:36;5.10;;;4.80;;
4106;SDS011;21906;50.812;7.132;2022-08-04T07:32:04;5.80;;;5.20;;
4106;SDS011;21906;50.812;7.132;2022-08-04T07:34:30;5.13;;;4.83;;
4106;SDS011;21906;50.812;7.132;2022-08-04T07:36:57;4.70;;;4.50;;
4106;SDS011;21906;50.812;7.132;2022-08-04T07:39:25;6.27;;;5.17;;
4106;SDS011;21906;50.812;7.132;2022-08-04T07:41:55;7.83;;;5.20;;
4106;SDS011;21906;50.812;7.132;2022-08-04T07:44:23;5.50;;;5.00;;
4106;SDS011;21906;50.812;7.132;2022-08-04T07:46:49;5.37;;;5.00;;
4106;SDS011;21906;50.812;7.132;2022-08-04T07:49:15;5.17;;;4.87;;
4106;SDS011;21906;50.812;7.132;2022-08-04T07:51:41;5.10;;;4.70;;
4106;SDS011;21906;50.812;7.132;2022-08-04T07:54:07;5.40;;;4.90;;
4106;SDS011;21906;50.812;7.132;2022-08-04T07:56:36;5.10;;;4.90;;
4106;SDS011;21906;50.812;7.132;2022-08-04T07:59:05;5.27;;;4.87;;
4106;SDS011;21906;50.812;7.132;2022-08-04T08:01:32;5.87;;;5.20;;
4106;SDS011;21906;50.812;7.132;2022-08-04T08:04:00;4.50;;;4.27;;
4106;SDS011;21906;50.812;7.132;2022-08-04T08:06:27;5.13;;;4.67;;
4106;SDS011;21906;50.812;7.132;2022-08-04T08:08:54;6.23;;;4.83;;
4106;SDS011;21906;50.812;7.132;2022-08-04T08:11:20;5.30;;;4.90;;
4106;SDS011;21906;50.812;7.132;2022-08-04T08:13:46;4.73;;;4.43;;
4106;SDS011;21906;50.812;7.132;2022-08-04T08:16:12;4.83;;;4.43;;
4106;SDS011;21906;50.812;7.132;2022-08-04T08:18:38;6.70;;;4.70;;
4106;SDS011;21906;50.812;7.132;2022-08-04T08:21:04;5.60;;;5.10;;
4106;SDS011;21906;50.812;7.132;2022-08-04T08:23:31;5.30;;;5.03;;
4106;SDS011;21906;50.812;7.132;2022-08-04T08:25:59;4.93;;;4.70;;
4106;SDS011;21906;50.812;7.132;2022-08-04T08:28:25;5.00;;;4.80;;
4106;SDS011;21906;50.812;7.132;2022-08-04T08:30:51;5.37;;;4.97;;
4106;SDS011;21906;50.812;7.132;2022-08-04T08:33:17;6.17;;;5.60;;
4106;SDS011;21906;50.812;7.132;2022-08-04T08:57:43;4.27;;;3.97;;
4106;SDS011;21906;50.812;7.132;2022-08-04T09:00:17;3.93;;;3.73;;
4106;SDS011;21906;50.812;7.132;2022-08-04T09:11:19;4.70;;;3.73;;
4106;SDS011;21906;50.812;7.132;2022-08-04T09:16:48;4.27;;;3.87;;
4106;SDS011;21906;50.812;7.132;2022-08-04T09:25:27;4.03;;;3.70;;
4106;SDS011;21906;50.812;7.132;2022-08-04T09:27:59;3.83;;;3.53;;
4106;SDS011;21906;50.812;7.132;2022-08-04T09:36:03;3.63;;;3.47;;
4106;SDS011;21906;50.812;7.132;2022-08-04T09:38:40;3.27;;;3.07;;
4106;SDS011;21906;50.812;7.132;2022-08-04T09:47:40;3.17;;;2.97;;
4106;SDS011;21906;50.812;7.132;2022-08-04T10:01:20;3.40;;;3.20;;
4106;SDS011;21906;50.812;7.132;2022-08-04T10:03:49;4.70;;;3.13;;
4106;SDS011;21906;50.812;7.132;2022-08-04T10:07:02;3.50;;;2.97;;
4106;SDS011;21906;50.812;7.132;2022-08-04T10:09:32;3.20;;;2.90;;
4106;SDS011;21906;50.812;7.132;2022-08-04T10:19:46;3.80;;;3.50;;
4106;SDS011;21906;50.812;7.132;2022-08-04T10:22:32;3.73;;;3.23;;
4106;SDS011;21906;50.812;7.132;2022-08-04T10:27:45;5.60;;;3.80;;
4106;SDS011;21906;50.812;7.132;2022-08-04T10:30:22;3.47;;;3.20;;
4106;SDS011;21906;50.812;7.132;2022-08-04T10:35:30;3.27;;;2.97;;
4106;SDS011;21906;50.812;7.132;2022-08-04T10:40:31;3.87;;;3.37;;
4106;SDS011;21906;50.812;7.132;2022-08-04T10:46:18;7.53;;;3.60;;
4106;SDS011;21906;50.812;7.132;2022-08-04T10:48:53;5.50;;;3.03;;
4106;SDS011;21906;50.812;7.132;2022-08-04T10:51:34;3.63;;;3.50;;
4106;SDS011;21906;50.812;7.132;2022-08-04T10:54:05;3.30;;;3.10;;
4106;SDS011;21906;50.812;7.132;2022-08-04T10:56:54;5.10;;;2.97;;
4106;SDS011;21906;50.812;7.132;2022-08-04T11:05:16;3.03;;;2.83;;
4106;SDS011;21906;50.812;7.132;2022-08-04T11:07:50;3.30;;;2.80;;
4106;SDS011;21906;50.812;7.132;2022-08-04T11:10:20;2.90;;;2.70;;
4106;SDS011;21906;50.812;7.132;2022-08-04T11:12:56;3.40;;;2.50;;
4106;SDS011;21906;50.812;7.132;2022-08-04T11:15:35;2.67;;;2.47;;
4106;SDS011;21906;50.812;7.132;2022-08-04T11:18:05;3.30;;;2.70;;
4106;SDS011;21906;50.812;7.132;2022-08-04T11:20:41;3.03;;;2.83;;
4106;SDS011;21906;50.812;7.132;2022-08-04T11:25:43;3.00;;;2.80;;
4106;SDS011;21906;50.812;7.132;2022-08-04T11:31:03;4.70;;;3.20;;
4106;SDS011;21906;50.812;7.132;2022-08-04T11:38:52;5.17;;;2.93;;
4106;SDS011;21906;50.812;7.132;2022-08-04T11:44:43;3.73;;;2.77;;
4106;SDS011;21906;50.812;7.132;2022-08-04T11:47:31;3.60;;;3.30;;
4106;SDS011;21906;50.812;7.132;2022-08-04T11:50:12;5.30;;;3.30;;
4106;SDS011;21906;50.812;7.132;2022-08-04T11:52:44;5.80;;;3.70;;
4106;SDS011;21906;50.812;7.132;2022-08-04T11:55:12;5.80;;;3.10;;
4106;SDS011;21906;50.812;7.132;2022-08-04T11:57:40;8.33;;;3.13;;
4106;SDS011;21906;50.812;7.132;2022-08-04T12:00:09;4.70;;;2.70;;
4106;SDS011;21906;50.812;7.132;2022-08-04T12:05:13;2.80;;;2.60;;
4106;SDS011;21906;50.812;7.132;2022-08-04T12:13:23;6.73;;;3.40;;
4106;SDS011;21906;50.812;7.132;2022-08-04T12:16:05;3.20;;;3.00;;
4106;SDS011;21906;50.812;7.132;2022-08-04T12:19:18;3.60;;;3.30;;
4106;SDS011;21906;50.812;7.132;2022-08-04T12:21:34;5.80;;;4.20;;
4106;SDS011;21906;50.812;7.132;2022-08-04T12:24:19;3.83;;;3.20;;
4106;SDS011;21906;50.812;7.132;2022-08-04T12:26:57;6.07;;;3.17;;
4106;SDS011;21906;50.812;7.132;2022-08-04T12:29:30;3.70;;;3.40;;
4106;SDS011;21906;50.812;7.132;2022-08-04T12:32:02;4.13;;;3.73;;
4106;SDS011;21906;50.812;7.132;2022-08-04T12:39:51;3.90;;;3.53;;
4106;SDS011;21906;50.812;7.132;2022-08-04T12:42:28;4.13;;;3.73;;
4106;SDS011;21906;50.812;7.132;2022-08-04T12:44:57;6.07;;;3.47;;
4106;SDS011;21906;50.812;7.132;2022-08-04T12:47:28;4.57;;;3.13;;
4106;SDS011;21906;50.812;7.132;2022-08-04T12:49:56;9.80;;;3.33;;
4106;SDS011;21906;50.812;7.132;2022-08-04T12:52:24;7.33;;;3.30;;
4106;SDS011;21906;50.812;7.132;2022-08-04T12:54:51;3.80;;;3.20;;
4106;SDS011;21906;50.812;7.132;2022-08-04T12:57:19;4.47;;;3.57;;
4106;SDS011;21906;50.812;7.132;2022-08-04T12:59:47;7.80;;;3.50;;
4106;SDS011;21906;50.812;7.132;2022-08-04T13:02:15;5.83;;;3.20;;
4106;SDS011;21906;50.812;7.132;2022-08-04T13:04:47;8.57;;;3.43;;
4106;SDS011;21906;50.812;7.132;2022-08-04T13:07:17;6.30;;;3.33;;
4106;SDS011;21906;50.812;7.132;2022-08-04T13:09:44;3.60;;;3.00;;
4106;SDS011;21906;50.812;7.132;2022-08-04T13:12:12;3.40;;;3.07;;
4106;SDS011;21906;50.812;7.132;2022-08-04T13:14:40;6.13;;;3.00;;
4106;SDS011;21906;50.812;7.132;2022-08-04T13:17:10;8.90;;;3.27;;
4106;SDS011;21906;50.812;7.132;2022-08-04T13:19:36;4.20;;;3.90;;
4106;SDS011;21906;50.812;7.132;2022-08-04T13:22:03;4.03;;;3.67;;
4106;SDS011;21906;50.812;7.132;2022-08-04T13:24:30;8.93;;;3.80;;
4106;SDS011;21906;50.812;7.132;2022-08-04T13:27:02;5.40;;;3.60;;
4106;SDS011;21906;50.812;7.132;2022-08-04T13:32:03;4.40;;;3.97;;
4106;SDS011;21906;50.812;7.132;2022-08-04T13:34:29;8.50;;;4.47;;
4106;SDS011;21906;50.812;7.132;2022-08-04T13:36:57;4.17;;;3.87;;
4106;SDS011;21906;50.812;7.132;2022-08-04T13:39:24;4.13;;;3.83;;
4106;SDS011;21906;50.812;7.132;2022-08-04T13:41:52;6.10;;;3.67;;
4106;SDS011;21906;50.812;7.132;2022-08-04T13:44:28;4.40;;;4.10;;
4106;SDS011;21906;50.812;7.132;2022-08-04T13:47:00;3.97;;;3.60;;
4106;SDS011;21906;50.812;7.132;2022-08-04T13:49:39;6.30;;;3.50;;
4106;SDS011;21906;50.812;7.132;2022-08-04T13:52:05;5.07;;;3.20;;
4106;SDS011;21906;50.812;7.132;2022-08-04T13:54:36;4.43;;;3.53;;
4106;SDS011;21906;50.812;7.132;2022-08-04T13:57:05;4.63;;;3.27;;
4106;SDS011;21906;50.812;7.132;2022-08-04T13:59:52;6.00;;;3.20;;
4106;SDS011;21906;50.812;7.132;2022-08-04T14:05:23;4.23;;;3.83;;
4106;SDS011;21906;50.812;7.132;2022-08-04T14:08:14;4.10;;;3.77;;
4106;SDS011;21906;50.812;7.132;2022-08-04T14:10:51;4.77;;;3.50;;
4106;SDS011;21906;50.812;7.132;2022-08-04T14:13:31;5.37;;;3.30;;
4106;SDS011;21906;50.812;7.132;2022-08-04T14:15:58;3.83;;;3.53;;
4106;SDS011;21906;50.812;7.132;2022-08-04T14:18:25;5.10;;;3.57;;
4106;SDS011;21906;50.812;7.132;2022-08-04T14:20:59;3.83;;;3.40;;
4106;SDS011;21906;50.812;7.132;2022-08-04T14:23:25;5.17;;;3.57;;
4106;SDS011;21906;50.812;7.132;2022-08-04T14:25:51;4.50;;;4.10;;
4106;SDS011;21906;50.812;7.132;2022-08-04T14:28:27;4.80;;;4.40;;
4106;SDS011;21906;50.812;7.132;2022-08-04T14:33:39;3.87;;;3.50;;
4106;SDS011;21906;50.812;7.132;2022-08-04T14:36:06;5.30;;;4.80;;
4106;SDS011;21906;50.812;7.132;2022-08-04T14:38:46;6.70;;;6.10;;
4106;SDS011;21906;50.812;7.132;2022-08-04T14:41:16;9.37;;;7.10;;
4106;SDS011;21906;50.812;7.132;2022-08-04T14:43:48;6.43;;;3.80;;
4106;SDS011;21906;50.812;7.132;2022-08-04T14:46:16;8.30;;;7.13;;
4106;SDS011;21906;50.812;7.132;2022-08-04T14:49:05;14.80;;;9.60;;
4106;SDS011;21906;50.812;7.132;2022-08-04T14:51:38;7.37;;;6.60;;
4106;SDS011;21906;50.812;7.132;2022-08-04T14:54:15;6.07;;;4.27;;
4106;SDS011;21906;50.812;7.132;2022-08-04T14:56:53;6.60;;;4.10;;
4106;SDS011;21906;50.812;7.132;2022-08-04T14:59:21;7.40;;;5.43;;
4106;SDS011;21906;50.812;7.132;2022-08-04T15:01:48;7.63;;;6.60;;
4106;SDS011;21906;50.812;7.132;2022-08-04T15:04:15;5.10;;;4.70;;
4106;SDS011;21906;50.812;7.132;2022-08-04T15:06:41;5.70;;;5.40;;
4106;SDS011;21906;50.812;7.132;2022-08-04T15:09:08;4.33;;;4.03;;
4106;SDS011;21906;50.812;7.132;2022-08-04T15:11:35;7.93;;;4.90;;
4106;SDS011;21906;50.812;7.132;2022-08-04T15:14:02;4.97;;;4.40;;
4106;SDS011;21906;50.812;7.132;2022-08-04T15:16:29;4.47;;;4.10;;
4106;SDS011;21906;50.812;7.132;2022-08-04T15:18:57;4.77;;;4.37;;
4106;SDS011;21906;50.812;7.132;2022-08-04T15:21:24;4.30;;;4.00;;
4106;SDS011;21906;50.812;7.132;2022-08-04T15:23:53;5.90;;;5.40;;
4106;SDS011;21906;50.812;7.132;2022-08-04T15:26:26;6.43;;;5.60;;
4106;SDS011;21906;50.812;7.132;2022-08-04T15:29:09;6.10;;;5.77;;
4106;SDS011;21906;50.812;7.132;2022-08-04T15:31:41;5.40;;;5.00;;
4106;SDS011;21906;50.812;7.132;2022-08-04T15:34:08;5.10;;;4.60;;
4106;SDS011;21906;50.812;7.132;2022-08-04T15:36:37;6.07;;;5.57;;
4106;SDS011;21906;50.812;7.132;2022-08-04T15:39:25;5.10;;;4.43;;
4106;SDS011;21906;50.812;7.132;2022-08-04T15:47:11;4.47;;;4.07;;
4106;SDS011;21906;50.812;7.132;2022-08-04T15:49:38;5.50;;;4.03;;
4106;SDS011;21906;50.812;7.132;2022-08-04T15:52:08;4.70;;;4.40;;
4106;SDS011;21906;50.812;7.132;2022-08-04T15:54:40;5.77;;;4.70;;
4106;SDS011;21906;50.812;7.132;2022-08-04T15:57:06;5.20;;;4.80;;
4106;SDS011;21906;50.812;7.132;2022-08-04T16:12:52;10.00;;;5.17;;
4106;SDS011;21906;50.812;7.132;2022-08-04T16:18:04;4.40;;;4.07;;
4106;SDS011;21906;50.812;7.132;2022-08-04T16:20:31;6.40;;;4.30;;
4106;SDS011;21906;50.812;7.132;2022-08-04T16:23:26;6.50;;;4.63;;
4106;SDS011;21906;50.812;7.132;2022-08-04T16:29:02;7.07;;;4.40;;
4106;SDS011;21906;50.812;7.132;2022-08-04T16:34:34;5.57;;;3.63;;
4106;SDS011;21906;50.812;7.132;2022-08-04T16:37:07;8.50;;;4.53;;
4106;SDS011;21906;50.812;7.132;2022-08-04T16:39:35;4.73;;;4.33;;
4106;SDS011;21906;50.812;7.132;2022-08-04T16:42:26;13.80;;;5.43;;
4106;SDS011;21906;50.812;7.132;2022-08-04T16:44:58;5.53;;;4.97;;
4106;SDS011;21906;50.812;7.132;2022-08-04T16:50:11;8.50;;;5.23;;
4106;SDS011;21906;50.812;7.132;2022-08-04T16:52:50;13.40;;;5.40;;
4106;SDS011;21906;50.812;7.132;2022-08-04T16:55:18;11.67;;;5.63;;
4106;SDS011;21906;50.812;7.132;2022-08-04T16:57:46;9.33;;;5.60;;
4106;SDS011;21906;50.812;7.132;2022-08-04T17:00:17;7.57;;;5.47;;
4106;SDS011;21906;50.812;7.132;2022-08-04T17:02:51;6.07;;;5.60;;
4106;SDS011;21906;50.812;7.132;2022-08-04T17:05:21;6.53;;;5.23;;
4106;SDS011;21906;50.812;7.132;2022-08-04T17:07:52;6.17;;;5.37;;
4106;SDS011;21906;50.812;7.132;2022-08-04T17:10:32;5.37;;;4.87;;
4106;SDS011;21906;50.812;7.132;2022-08-04T17:15:57;6.00;;;5.60;;
4106;SDS011;21906;50.812;7.132;2022-08-04T17:18:46;5.70;;;5.20;;
4106;SDS011;21906;50.812;7.132;2022-08-04T17:23:43;5.50;;;5.00;;
4106;SDS011;21906;50.812;7.132;2022-08-04T17:26:19;5.60;;;5.20;;
4106;SDS011;21906;50.812;7.132;2022-08-04T17:28:48;4.87;;;4.50;;
4106;SDS011;21906;50.812;7.132;2022-08-04T17:31:15;5.50;;;5.00;;
4106;SDS011;21906;50.812;7.132;2022-08-04T17:33:44;4.53;;;4.10;;
4106;SDS011;21906;50.812;7.132;2022-08-04T17:36:15;4.80;;;4.40;;
4106;SDS011;21906;50.812;7.132;2022-08-04T17:38:46;6.00;;;4.40;;
4106;SDS011;21906;50.812;7.132;2022-08-04T17:41:15;4.80;;;4.40;;
4106;SDS011;21906;50.812;7.132;2022-08-04T17:43:48;5.27;;;4.87;;
4106;SDS011;21906;50.812;7.132;2022-08-04T17:48:44;4.80;;;4.50;;
4106;SDS011;21906;50.812;7.132;2022-08-04T17:51:11;5.37;;;4.87;;
4106;SDS011;21906;50.812;7.132;2022-08-04T17:53:37;5.13;;;4.80;;
4106;SDS011;21906;50.812;7.132;2022-08-04T17:56:03;5.63;;;5.13;;
4106;SDS011;21906;50.812;7.132;2022-08-04T17:58:29;5.40;;;5.10;;
4106;SDS011;21906;50.812;7.132;2022-08-04T18:01:01;5.20;;;4.90;;
4106;SDS011;21906;50.812;7.132;2022-08-04T18:03:27;5.70;;;5.10;;
4106;SDS011;21906;50.812;7.132;2022-08-04T18:05:53;5.97;;;5.57;;
4106;SDS011;21906;50.812;7.132;2022-08-04T18:08:25;6.07;;;5.63;;
4106;SDS011;21906;50.812;7.132;2022-08-04T18:10:52;7.87;;;6.00;;
4106;SDS011;21906;50.812;7.132;2022-08-04T18:13:19;6.00;;;5.50;;
4106;SDS011;21906;50.812;7.132;2022-08-04T18:15:46;6.73;;;6.13;;
4106;SDS011;21906;50.812;7.132;2022-08-04T18:18:19;6.30;;;5.80;;
4106;SDS011;21906;50.812;7.132;2022-08-04T18:20:46;7.10;;;6.40;;
4106;SDS011;21906;50.812;7.132;2022-08-04T18:23:13;6.53;;;5.93;;
4106;SDS011;21906;50.812;7.132;2022-08-04T18:25:46;7.70;;;6.00;;
4106;SDS011;21906;50.812;7.132;2022-08-04T18:28:11;6.13;;;5.53;;
4106;SDS011;21906;50.812;7.132;2022-08-04T18:30:38;6.50;;;5.50;;
4106;SDS011;21906;50.812;7.132;2022-08-04T18:33:04;6.33;;;5.73;;
4106;SDS011;21906;50.812;7.132;2022-08-04T18:35:31;6.70;;;6.03;;
4106;SDS011;21906;50.812;7.132;2022-08-04T18:37:58;5.83;;;5.43;;
4106;SDS011;21906;50.812;7.132;2022-08-04T18:40:25;6.43;;;5.83;;
4106;SDS011;21906;50.812;7.132;2022-08-04T18:42:51;5.60;;;5.10;;
4106;SDS011;21906;50.812;7.132;2022-08-04T18:45:17;6.57;;;5.73;;
4106;SDS011;21906;50.812;7.132;2022-08-04T18:47:43;6.20;;;5.60;;
4106;SDS011;21906;50.812;7.132;2022-08-04T18:50:08;5.60;;;5.20;;
4106;SDS011;21906;50.812;7.132;2022-08-04T18:52:34;6.90;;;6.23;;
4106;SDS011;21906;50.812;7.132;2022-08-04T18:55:00;7.63;;;6.00;;
4106;SDS011;21906;50.812;7.132;2022-08-04T18:57:27;7.23;;;5.63;;
4106;SDS011;21906;50.812;7.132;2022-08-04T18:59:55;7.47;;;6.70;;
4106;SDS011;21906;50.812;7.132;2022-08-04T19:02:21;6.73;;;6.00;;
4106;SDS011;21906;50.812;7.132;2022-08-04T19:04:46;6.00;;;5.53;;
4106;SDS011;21906;50.812;7.132;2022-08-04T19:07:13;6.57;;;5.97;;
4106;SDS011;21906;50.812;7.132;2022-08-04T19:09:39;7.10;;;6.50;;
4106;SDS011;21906;50.812;7.132;2022-08-04T19:12:05;6.73;;;6.07;;
4106;SDS011;21906;50.812;7.132;2022-08-04T19:14:31;6.93;;;6.33;;
4106;SDS011;21906;50.812;7.132;2022-08-04T19:16:57;6.67;;;6.13;;
4106;SDS011;21906;50.812;7.132;2022-08-04T19:19:23;7.30;;;6.20;;
4106;SDS011;21906;50.812;7.132;2022-08-04T19:21:48;7.67;;;5.67;;
4106;SDS011;21906;50.812;7.132;2022-08-04T19:24:14;6.23;;;5.73;;
4106;SDS011;21906;50.812;7.132;2022-08-04T19:26:40;7.97;;;6.40;;
4106;SDS011;21906;50.812;7.132;2022-08-04T19:29:06;8.00;;;6.10;;
4106;SDS011;21906;50.812;7.132;2022-08-04T19:31:32;6.23;;;5.80;;
4106;SDS011;21906;50.812;7.132;2022-08-04T19:33:58;6.57;;;6.00;;
4106;SDS011;21906;50.812;7.132;2022-08-04T19:36:24;8.20;;;6.37;;
4106;SDS011;21906;50.812;7.132;2022-08-04T19:38:52;6.63;;;5.97;;
4106;SDS011;21906;50.812;7.132;2022-08-04T19:41:18;7.67;;;6.70;;
4106;SDS011;21906;50.812;7.132;2022-08-04T19:43:44;7.67;;;6.77;;
4106;SDS011;21906;50.812;7.132;2022-08-04T19:46:11;7.70;;;6.30;;
4106;SDS011;21906;50.812;7.132;2022-08-04T19:48:38;6.63;;;5.87;;
4106;SDS011;21906;50.812;7.132;2022-08-04T19:51:04;8.30;;;6.10;;
4106;SDS011;21906;50.812;7.132;2022-08-04T19:53:30;7.40;;;6.70;;
4106;SDS011;21906;50.812;7.132;2022-08-04T19:55:55;6.93;;;6.33;;
4106;SDS011;21906;50.812;7.132;2022-08-04T19:58:21;7.30;;;6.60;;
4106;SDS011;21906;50.812;7.132;2022-08-04T20:00:49;7.40;;;6.63;;
4106;SDS011;21906;50.812;7.132;2022-08-04T20:03:15;7.77;;;7.00;;
4106;SDS011;21906;50.812;7.132;2022-08-04T20:05:41;11.90;;;7.70;;
4106;SDS011;21906;50.812;7.132;2022-08-04T20:08:08;7.80;;;7.10;;
4106;SDS011;21906;50.812;7.132;2022-08-04T20:10:34;7.90;;;6.53;;
4106;SDS011;21906;50.812;7.132;2022-08-04T20:13:01;7.97;;;7.37;;
4106;SDS011;21906;50.812;7.132;2022-08-04T20:15:27;8.30;;;7.40;;
4106;SDS011;21906;50.812;7.132;2022-08-04T20:17:53;11.20;;;8.57;;
4106;SDS011;21906;50.812;7.132;2022-08-04T20:20:18;8.67;;;7.50;;
4106;SDS011;21906;50.812;7.132;2022-08-04T20:22:44;9.60;;;7.60;;
4106;SDS011;21906;50.812;7.132;2022-08-04T20:25:10;9.87;;;7.20;;
4106;SDS011;21906;50.812;7.132;2022-08-04T20:27:36;7.33;;;6.70;;
4106;SDS011;21906;50.812;7.132;2022-08-04T20:30:02;9.27;;;6.83;;
4106;SDS011;21906;50.812;7.132;2022-08-04T20:32:28;7.73;;;6.27;;
4106;SDS011;21906;50.812;7.132;2022-08-04T20:34:55;7.77;;;5.90;;
4106;SDS011;21906;50.812;7.132;2022-08-04T20:37:22;5.53;;;5.03;;
4106;SDS011;21906;50.812;7.132;2022-08-04T20:39:55;7.93;;;5.23;;
4106;SDS011;21906;50.812;7.132;2022-08-04T20:42:25;5.40;;;5.00;;
4106;SDS011;21906;50.812;7.132;2022-08-04T20:44:52;5.93;;;5.33;;
4106;SDS011;21906;50.812;7.132;2022-08-04T20:47:18;7.90;;;5.60;;
4106;SDS011;21906;50.812;7.132;2022-08-04T20:49:44;7.40;;;5.37;;